Time;durP1;ratioP1;P1;durP2;ratioP2;P2;SDS_P1;SDS_P2;PMS_P1;PMS_P2;Temp;Humidity;BMP_temperature;BMP_pressure;BME280_temperature;BME280_humidity;BME280_pressure;Samples;Min_cycle;Max_cycle;Signal;HPM_P1;HPM_P2
2022/03/09 00:01:31;;;;;;;8.13;4.35;;;;;;;;;;4936912;28;20387;-63
2022/03/09 00:03:57;;;;;;;7.07;4.07;;;;;;;;;;4935720;29;20074;-62
2022/03/09 00:06:23;;;;;;;7.22;4.68;;;3.50;99.90;;;;;;4936647;29;20040;-63
2022/03/09 00:08:49;;;;;;;6.80;4.57;;;;;;;;;;4936311;29;20105;-62
2022/03/09 00:11:15;;;;;;;7.63;4.22;;;;;;;;;;4936149;29;20482;-62
2022/03/09 00:13:41;;;;;;;6.40;4.68;;;3.60;99.90;;;;;;4937439;29;20067;-63
2022/03/09 00:16:06;;;;;;;11.45;5.05;;;3.50;99.90;;;;;;4935862;29;20132;-63
2022/03/09 00:18:32;;;;;;;9.02;4.75;;;3.60;99.90;;;;;;4937359;29;20051;-63
2022/03/09 00:20:58;;;;;;;7.25;4.90;;;3.40;99.90;;;;;;4935186;29;20169;-63
2022/03/09 00:23:23;;;;;;;10.90;6.00;;;;;;;;;;4936123;29;20075;-63
2022/03/09 00:25:49;;;;;;;7.38;4.50;;;3.50;99.90;;;;;;4936439;29;20051;-63
2022/03/09 00:28:15;;;;;;;8.05;4.90;;;3.50;99.90;;;;;;4936542;28;20042;-63
2022/03/09 00:30:41;;;;;;;8.52;4.88;;;;;;;;;;4902984;28;1051477;-63
2022/03/09 00:33:07;;;;;;;13.00;5.03;;;3.30;99.90;;;;;;4956009;29;20059;-63
2022/03/09 00:35:32;;;;;;;7.95;4.70;;;3.40;99.90;;;;;;4957938;28;20546;-63
2022/03/09 00:37:58;;;;;;;8.43;5.10;;;3.50;99.90;;;;;;4957216;29;20093;-63
2022/03/09 00:40:23;;;;;;;8.82;4.85;;;3.60;99.90;;;;;;4957196;28;20035;-63
2022/03/09 00:42:49;;;;;;;8.13;4.78;;;3.50;99.90;;;;;;4938633;29;20508;-64
2022/03/09 00:45:15;;;;;;;6.55;4.60;;;3.50;99.90;;;;;;4955700;28;20043;-63
2022/03/09 00:47:40;;;;;;;23.58;7.18;;;3.40;99.90;;;;;;4939350;29;20109;-63
2022/03/09 00:50:06;;;;;;;8.88;5.07;;;3.50;99.90;;;;;;4956970;28;20043;-64
2022/03/09 00:52:33;;;;;;;8.93;5.18;;;;;;;;;;4956753;29;20035;-62
2022/03/09 00:54:58;;;;;;;6.38;4.60;;;3.30;99.90;;;;;;4956633;29;20053;-63
2022/03/09 00:57:24;;;;;;;8.65;5.05;;;3.30;99.90;;;;;;4956723;29;20400;-63
2022/03/09 00:59:49;;;;;;;8.75;4.53;;;3.40;99.90;;;;;;4956061;28;20528;-63
2022/03/09 01:02:17;;;;;;;9.43;5.32;;;3.40;99.90;;;;;;4957109;29;20554;-63
2022/03/09 01:04:43;;;;;;;13.15;5.63;;;3.40;99.90;;;;;;4956363;29;20048;-62
2022/03/09 01:07:09;;;;;;;9.63;4.70;;;;;;;;;;4956353;29;20048;-63
2022/03/09 01:09:35;;;;;;;7.82;4.55;;;;;;;;;;4955752;28;20035;-63
2022/03/09 01:12:00;;;;;;;8.45;5.18;;;3.50;99.90;;;;;;4956111;28;20035;-63
2022/03/09 01:14:29;;;;;;;9.57;5.57;;;;;;;;;;4939855;29;20105;-63
2022/03/09 01:16:54;;;;;;;8.98;4.65;;;3.40;99.90;;;;;;4939689;29;20054;-63
2022/03/09 01:19:20;;;;;;;8.45;5.03;;;3.40;99.90;;;;;;4955797;28;20073;-63
2022/03/09 01:21:46;;;;;;;7.95;5.38;;;;;;;;;;4956548;28;20054;-62
2022/03/09 01:24:12;;;;;;;7.70;4.80;;;;;;;;;;4956502;28;20047;-63
2022/03/09 01:26:38;;;;;;;8.20;4.60;;;;;;;;;;4955545;28;20035;-63
2022/03/09 01:29:06;;;;;;;8.75;5.57;;;;;;;;;;4955399;29;20054;-62
2022/03/09 01:31:32;;;;;;;10.93;5.65;;;3.10;99.90;;;;;;4955314;28;20067;-63
2022/03/09 01:33:57;;;;;;;9.10;5.45;;;3.10;99.90;;;;;;4956212;28;20512;-63
2022/03/09 01:36:23;;;;;;;11.45;5.30;;;;;;;;;;4956080;29;20114;-62
2022/03/09 01:38:49;;;;;;;9.73;5.40;;;;;;;;;;4923074;29;20048;-63
2022/03/09 01:41:15;;;;;;;10.50;6.07;;;2.90;99.90;;;;;;4938402;29;20409;-64
2022/03/09 01:43:41;;;;;;;7.68;5.47;;;2.90;99.90;;;;;;4956566;29;20136;-64
2022/03/09 01:46:06;;;;;;;9.85;5.85;;;2.70;99.90;;;;;;5047488;28;20048;-63
2022/03/09 01:48:32;;;;;;;8.18;5.28;;;2.80;99.90;;;;;;5057841;28;20041;-63
2022/03/09 01:50:58;;;;;;;9.70;5.65;;;;;;;;;;5056256;28;20073;-60
2022/03/09 01:53:24;;;;;;;8.15;4.82;;;2.70;99.90;;;;;;5057411;28;20437;-63
2022/03/09 01:55:50;;;;;;;8.38;5.75;;;2.90;99.90;;;;;;5057155;28;20048;-62
2022/03/09 01:58:16;;;;;;;9.88;6.13;;;;;;;;;;5056629;28;20037;-64
2022/03/09 02:00:42;;;;;;;10.80;5.70;;;;;;;;;;5058111;28;20045;-62
2022/03/09 02:03:07;;;;;;;10.18;5.95;;;2.90;99.90;;;;;;5057666;28;20120;-63
2022/03/09 02:05:34;;;;;;;10.70;6.30;;;2.90;99.90;;;;;;5057137;28;20037;-63
2022/03/09 02:10:44;;;;;;;10.23;6.00;;;2.90;99.90;;;;;;5038123;28;20052;-63
2022/03/09 02:13:10;;;;;;;10.90;5.90;;;2.90;99.90;;;;;;5056617;28;20037;-63
2022/03/09 02:15:36;;;;;;;10.73;6.15;;;2.80;99.90;;;;;;5038438;28;20169;-63
2022/03/09 02:18:02;;;;;;;7.78;4.97;;;3.10;99.90;;;;;;5056405;28;20036;-63
2022/03/09 02:20:28;;;;;;;8.98;5.63;;;;;;;;;;5038383;28;20055;-63
2022/03/09 02:22:54;;;;;;;12.88;5.55;;;;;;;;;;5055327;28;20067;-61
2022/03/09 02:25:20;;;;;;;8.00;5.30;;;2.80;99.90;;;;;;5057653;28;20104;-63
2022/03/09 02:27:46;;;;;;;8.18;5.47;;;2.80;99.90;;;;;;5039098;28;20494;-63
2022/03/09 02:30:17;;;;;;;10.73;6.05;;;2.70;99.90;;;;;;5055832;28;20040;-62
2022/03/09 02:32:45;;;;;;;10.23;6.72;;;2.70;99.90;;;;;;5038000;28;20060;-63
2022/03/09 02:35:11;;;;;;;10.68;5.95;;;2.70;99.90;;;;;;5055787;28;20033;-63
2022/03/09 02:37:38;;;;;;;9.73;6.13;;;;;;;;;;5056288;28;20040;-63
2022/03/09 02:40:07;;;;;;;13.38;5.80;;;2.90;99.90;;;;;;5056064;28;20511;-63
2022/03/09 02:42:33;;;;;;;13.77;6.20;;;2.80;99.90;;;;;;5038284;28;20049;-63
2022/03/09 02:44:59;;;;;;;13.95;7.05;;;2.80;99.90;;;;;;5012667;28;20500;-63
2022/03/09 02:47:24;;;;;;;18.15;5.97;;;2.80;99.90;;;;;;4956044;28;20086;-62
2022/03/09 02:49:50;;;;;;;11.75;5.80;;;2.80;99.90;;;;;;4922208;28;20127;-63
2022/03/09 02:52:16;;;;;;;11.77;6.38;;;;;;;;;;4954377;29;20043;-62
2022/03/09 02:54:42;;;;;;;10.18;6.00;;;4.10;99.90;;;;;;4938313;28;20043;-63
2022/03/09 02:57:08;;;;;;;10.18;6.65;;;;;;;;;;4954487;28;20035;-63
2022/03/09 02:59:34;;;;;;;11.73;6.90;;;2.60;99.90;;;;;;4954636;29;20046;-63
2022/03/09 03:01:59;;;;;;;9.23;5.60;;;2.60;99.90;;;;;;4930915;29;20044;-63
2022/03/09 03:04:25;;;;;;;9.40;6.40;;;2.60;99.90;;;;;;4935277;29;20040;-62
2022/03/09 03:06:50;;;;;;;9.73;5.78;;;2.60;99.90;;;;;;4937148;29;20050;-62
2022/03/09 03:09:16;;;;;;;10.23;6.43;;;2.70;99.90;;;;;;4934613;29;20047;-63
2022/03/09 03:11:42;;;;;;;8.90;5.55;;;2.50;99.90;;;;;;4935888;29;20494;-62
2022/03/09 03:14:07;;;;;;;11.52;6.25;;;2.60;99.90;;;;;;4934847;29;20040;-62
2022/03/09 03:16:34;;;;;;;10.60;6.03;;;2.60;99.90;;;;;;4936242;29;20501;-62
2022/03/09 03:18:59;;;;;;;11.13;6.97;;;2.60;99.90;;;;;;4902610;28;20051;-62
2022/03/09 03:21:25;;;;;;;9.70;6.60;;;2.50;99.90;;;;;;4935910;29;20517;-62
2022/03/09 03:23:50;;;;;;;12.40;6.53;;;2.50;99.90;;;;;;4919073;28;20067;-63
2022/03/09 03:26:16;;;;;;;9.77;6.03;;;2.50;99.90;;;;;;4934638;29;20039;-62
2022/03/09 03:28:42;;;;;;;11.07;7.00;;;2.60;99.90;;;;;;4918496;29;20047;-61
2022/03/09 03:31:07;;;;;;;9.13;5.88;;;2.60;99.90;;;;;;4935314;29;20086;-63
2022/03/09 03:33:33;;;;;;;12.90;6.03;;;2.70;99.90;;;;;;4935528;29;20058;-62
2022/03/09 03:35:58;;;;;;;11.15;6.72;;;2.60;99.90;;;;;;4935311;29;20482;-62
2022/03/09 03:38:24;;;;;;;9.88;6.22;;;;;;;;;;4934008;29;20036;-62
2022/03/09 03:40:50;;;;;;;10.10;6.22;;;;;;;;;;4917386;28;20097;-62
2022/03/09 03:43:16;;;;;;;9.80;5.78;;;;;;;;;;4918899;28;20054;-62
2022/03/09 03:45:42;;;;;;;9.30;6.28;;;2.50;99.90;;;;;;4949381;28;20528;-62
2022/03/09 03:48:08;;;;;;;10.80;6.85;;;2.50;99.90;;;;;;4955081;29;20115;-63
2022/03/09 03:50:34;;;;;;;9.75;5.68;;;2.50;99.90;;;;;;4937211;29;20071;-63
2022/03/09 03:52:59;;;;;;;11.13;6.53;;;2.40;99.90;;;;;;4937246;29;20031;-62
2022/03/09 03:55:25;;;;;;;10.82;6.85;;;2.40;99.90;;;;;;4955517;29;20078;-61
2022/03/09 03:57:51;;;;;;;11.48;7.20;;;;;;;;;;4954118;29;20039;-62
2022/03/09 04:00:17;;;;;;;10.95;6.40;;;;;;;;;;4954091;28;20043;-61
2022/03/09 04:02:43;;;;;;;8.73;6.25;;;2.50;99.90;;;;;;4953756;29;20543;-63
2022/03/09 04:05:08;;;;;;;12.73;6.72;;;2.20;99.90;;;;;;4921686;29;20039;-62
2022/03/09 04:07:34;;;;;;;12.55;6.45;;;2.50;99.90;;;;;;4954451;29;20081;-63
2022/03/09 04:10:00;;;;;;;13.52;6.35;;;2.30;99.90;;;;;;4955204;28;20092;-62
2022/03/09 04:12:25;;;;;;;10.27;6.00;;;2.40;99.90;;;;;;4937059;29;20050;-63
2022/03/09 04:14:52;;;;;;;11.52;6.03;;;;;;;;;;4936261;29;20047;-62
2022/03/09 04:17:17;;;;;;;8.13;6.00;;;2.30;99.90;;;;;;4953399;29;20039;-63
2022/03/09 04:19:43;;;;;;;10.90;5.95;;;2.30;99.90;;;;;;4952926;29;20047;-63
2022/03/09 04:22:09;;;;;;;9.68;5.88;;;;;;;;;;4953387;28;20043;-61
2022/03/09 04:24:35;;;;;;;11.90;6.90;;;;;;;;;;4953119;29;20097;-62
2022/03/09 04:27:00;;;;;;;13.48;6.78;;;2.20;99.90;;;;;;4954736;28;20043;-63
2022/03/09 04:29:26;;;;;;;10.63;6.15;;;2.10;99.90;;;;;;4936823;28;20520;-63
2022/03/09 04:31:52;;;;;;;9.73;5.72;;;;;;;;;;4953924;28;20051;-63
2022/03/09 04:34:18;;;;;;;10.57;5.90;;;;;;;;;;4937185;29;20046;-63
2022/03/09 04:36:44;;;;;;;11.85;6.07;;;2.00;99.90;;;;;;4954375;29;20074;-63
2022/03/09 04:39:09;;;;;;;13.68;6.88;;;2.10;99.90;;;;;;4954346;28;20036;-63
2022/03/09 04:41:35;;;;;;;11.27;6.10;;;2.40;99.90;;;;;;4953998;28;20047;-63
2022/03/09 04:44:00;;;;;;;10.07;6.68;;;2.00;99.90;;;;;;4936659;28;20055;-63
2022/03/09 04:46:26;;;;;;;10.80;6.43;;;2.00;99.90;;;;;;4956659;29;20047;-63
2022/03/09 04:48:52;;;;;;;8.93;6.28;;;;;;;;;;4957378;28;20054;-63
2022/03/09 04:51:18;;;;;;;11.50;6.70;;;1.90;99.90;;;;;;4957688;28;20048;-63
2022/03/09 04:53:43;;;;;;;12.23;6.70;;;1.90;99.90;;;;;;4956834;29;20039;-63
2022/03/09 04:56:09;;;;;;;14.07;6.10;;;1.80;99.90;;;;;;4956057;29;20043;-63
2022/03/09 04:58:34;;;;;;;10.77;6.60;;;1.80;99.90;;;;;;4956763;29;20039;-63
2022/03/09 05:01:00;;;;;;;11.85;6.22;;;1.80;99.90;;;;;;4956716;28;20078;-63
2022/03/09 05:03:26;;;;;;;12.02;6.72;;;1.80;99.90;;;;;;4940897;28;20429;-63
2022/03/09 05:05:52;;;;;;;13.02;7.07;;;1.80;99.90;;;;;;4957244;29;20101;-63
2022/03/09 05:08:18;;;;;;;12.35;6.40;;;;;;;;;;4957005;29;20039;-63
2022/03/09 05:10:43;;;;;;;10.95;5.95;;;1.80;99.90;;;;;;4939056;29;20501;-63
2022/03/09 05:13:10;;;;;;;10.02;6.70;;;;;;;;;;4973894;28;20046;-63
2022/03/09 05:15:35;;;;;;;13.85;6.90;;;;;;;;;;4957342;28;20078;-63
2022/03/09 05:18:01;;;;;;;13.45;7.13;;;;;;;;;;4969958;28;20078;-62
2022/03/09 05:20:27;;;;;;;10.43;6.22;;;;;;;;;;4954028;28;20264;-63
2022/03/09 05:22:53;;;;;;;11.63;6.78;;;1.80;99.90;;;;;;4970923;28;20038;-63
2022/03/09 05:25:19;;;;;;;10.73;6.32;;;;;;;;;;4955551;28;20046;-62
2022/03/09 05:27:45;;;;;;;8.73;6.43;;;1.70;99.90;;;;;;4973998;28;20027;-63
2022/03/09 05:30:11;;;;;;;12.13;6.38;;;1.70;99.90;;;;;;4969293;28;20035;-62
2022/03/09 05:32:37;;;;;;;11.80;6.75;;;;;;;;;;4965445;28;20055;-63
2022/03/09 05:35:04;;;;;;;10.98;7.05;;;1.60;99.90;;;;;;4968461;28;20047;-63
2022/03/09 05:37:38;;;;;;;11.55;6.88;;;1.80;99.90;;;;;;4948076;28;20500;-63
2022/03/09 05:40:05;;;;;;;11.93;6.95;;;1.70;99.90;;;;;;4972232;28;20050;-63
2022/03/09 05:42:31;;;;;;;15.43;6.70;;;1.70;99.90;;;;;;4940069;28;20035;-63
2022/03/09 05:44:56;;;;;;;11.32;6.80;;;1.60;99.90;;;;;;4964819;28;20089;-63
2022/03/09 05:47:22;;;;;;;12.02;6.60;;;1.40;99.90;;;;;;4920904;29;20074;-63
2022/03/09 05:49:48;;;;;;;11.07;7.03;;;;;;;;;;4953867;28;20409;-63
2022/03/09 05:52:13;;;;;;;11.60;7.63;;;1.80;99.90;;;;;;4954048;29;20397;-63
2022/03/09 05:54:39;;;;;;;11.32;6.82;;;1.50;99.90;;;;;;4964088;28;20130;-63
2022/03/09 05:57:05;;;;;;;15.13;8.90;;;1.50;99.90;;;;;;4932805;28;20072;-63
2022/03/09 05:59:30;;;;;;;12.32;6.88;;;1.60;99.90;;;;;;4924227;29;20089;-63
2022/03/09 06:01:56;;;;;;;11.93;6.85;;;1.30;99.90;;;;;;4953768;28;20069;-63
2022/03/09 06:04:21;;;;;;;11.98;6.82;;;1.60;99.90;;;;;;4946505;29;20402;-63
2022/03/09 06:06:47;;;;;;;10.75;6.03;;;;;;;;;;4917439;29;20032;-64
2022/03/09 06:09:13;;;;;;;14.23;7.22;;;1.60;99.90;;;;;;4934736;28;20051;-64
2022/03/09 06:11:41;;;;;;;11.85;6.85;;;1.60;99.90;;;;;;4940812;28;20039;-64
2022/03/09 06:14:07;;;;;;;11.90;6.53;;;;;;;;;;4954804;28;20408;-64
2022/03/09 06:16:32;;;;;;;15.98;8.73;;;1.50;99.90;;;;;;4972819;28;20047;-64
2022/03/09 06:18:58;;;;;;;14.35;7.35;;;1.50;99.90;;;;;;4972724;28;20046;-63
2022/03/09 06:21:23;;;;;;;11.65;6.63;;;1.60;99.90;;;;;;4972845;28;20049;-63
2022/03/09 06:23:49;;;;;;;11.52;6.90;;;;;;;;;;4971625;28;20505;-63
2022/03/09 06:26:15;;;;;;;12.32;7.20;;;1.50;99.90;;;;;;4968652;28;20109;-63
2022/03/09 06:28:40;;;;;;;10.57;6.32;;;1.80;99.90;;;;;;4971428;28;20042;-63
2022/03/09 06:31:07;;;;;;;10.15;6.15;;;1.80;99.90;;;;;;4950274;28;20050;-64
2022/03/09 06:33:33;;;;;;;9.77;6.22;;;;;;;;;;4967422;28;20478;-63
2022/03/09 06:35:58;;;;;;;13.13;7.20;;;1.90;99.90;;;;;;4951897;28;20061;-63
2022/03/09 06:38:24;;;;;;;12.85;6.40;;;1.90;99.90;;;;;;4948593;28;20533;-64
2022/03/09 06:40:50;;;;;;;14.07;7.20;;;;;;;;;;4964133;28;20375;-64
2022/03/09 06:43:16;;;;;;;11.75;6.80;;;;;;;;;;4961383;28;20062;-64
2022/03/09 06:45:42;;;;;;;9.13;6.32;;;;;;;;;;4960015;28;20043;-64
2022/03/09 06:48:08;;;;;;;10.45;7.30;;;;;;;;;;4958693;28;20101;-62
2022/03/09 06:50:35;;;;;;;12.13;6.40;;;;;;;;;;4963296;28;20039;-59
2022/03/09 06:53:01;;;;;;;11.85;7.45;;;2.20;99.90;;;;;;4963315;28;20438;-58
2022/03/09 06:55:27;;;;;;;14.77;6.78;;;;;;;;;;4951612;29;20397;-58
2022/03/09 06:57:53;;;;;;;10.73;6.95;;;2.20;99.90;;;;;;4958706;28;20085;-58
2022/03/09 07:00:19;;;;;;;10.60;6.57;;;;;;;;;;4968199;28;20070;-63
2022/03/09 07:02:46;;;;;;;14.25;6.57;;;2.50;99.90;;;;;;4953167;28;20559;-63
2022/03/09 07:05:12;;;;;;;12.02;6.57;;;2.40;99.90;;;;;;4952149;28;20043;-64
2022/03/09 07:07:38;;;;;;;12.02;6.85;;;;;;;;;;4948599;28;20447;-63
2022/03/09 07:10:05;;;;;;;10.50;6.80;;;2.60;99.90;;;;;;4951660;28;20055;-64
2022/03/09 07:12:31;;;;;;;11.13;6.15;;;;;;;;;;4999187;28;20467;-63
2022/03/09 07:14:57;;;;;;;10.48;6.97;;;2.90;99.90;;;;;;4936336;29;20047;-57
2022/03/09 07:17:23;;;;;;;9.90;6.22;;;;;;;;;;4951524;28;20043;-61
2022/03/09 07:19:48;;;;;;;11.30;7.20;;;3.10;99.90;;;;;;4951709;28;20443;-58
2022/03/09 07:22:15;;;;;;;14.43;7.60;;;3.40;99.90;;;;;;4959758;28;20100;-58
2022/03/09 07:24:40;;;;;;;14.23;7.85;;;3.50;99.90;;;;;;4959817;28;20073;-64
2022/03/09 07:27:06;;;;;;;12.43;7.28;;;4.20;99.90;;;;;;4963874;28;20039;-58
2022/03/09 07:29:31;;;;;;;12.00;7.25;;;4.80;99.90;;;;;;4951352;29;20122;-64
2022/03/09 07:31:57;;;;;;;11.50;6.43;;;;;;;;;;4957069;28;20055;-63
2022/03/09 07:34:26;;;;;;;10.15;6.28;;;;;;;;;;4970799;28;20175;-63
2022/03/09 07:36:58;;;;;;;10.27;7.32;;;6.30;99.90;;;;;;4964628;28;20035;-59
2022/03/09 07:39:26;;;;;;;13.13;7.82;;;;;;;;;;4954430;28;20043;-61
2022/03/09 07:41:52;;;;;;;13.35;7.40;;;;;;;;;;4965334;28;20050;-58
2022/03/09 07:44:18;;;;;;;10.57;6.95;;;7.00;99.90;;;;;;4971420;28;20039;-61
2022/03/09 07:46:44;;;;;;;11.70;7.75;;;;;;;;;;4941718;28;20047;-62
2022/03/09 07:49:09;;;;;;;8.98;6.60;;;8.00;99.90;;;;;;4965450;28;20047;-63
2022/03/09 07:51:35;;;;;;;11.05;7.20;;;8.60;99.90;;;;;;4961964;28;20053;-63
2022/03/09 07:54:01;;;;;;;10.27;6.70;;;;;;;;;;4972111;28;20030;-62
2022/03/09 07:56:27;;;;;;;8.93;6.93;;;9.80;98.00;;;;;;4962857;28;20096;-63
2022/03/09 07:58:52;;;;;;;11.63;7.00;;;9.00;97.00;;;;;;4962196;28;20049;-63
2022/03/09 08:01:18;;;;;;;10.73;7.00;;;;;;;;;;4960742;28;20039;-62
2022/03/09 08:03:44;;;;;;;11.32;7.00;;;;;;;;;;4962290;28;20054;-59
2022/03/09 08:06:10;;;;;;;11.63;6.85;;;7.70;97.20;;;;;;4970978;28;20050;-64
2022/03/09 08:08:36;;;;;;;12.27;7.18;;;;;;;;;;4951433;28;20122;-63
2022/03/09 08:11:02;;;;;;;8.85;6.65;;;8.40;97.20;;;;;;4952538;28;20047;-64
2022/03/09 08:13:27;;;;;;;11.00;7.03;;;8.70;96.50;;;;;;4965202;28;20039;-63
2022/03/09 08:15:53;;;;;;;11.95;6.50;;;9.10;96.20;;;;;;4956175;28;20489;-64
2022/03/09 08:18:18;;;;;;;8.23;5.88;;;9.20;94.40;;;;;;4964258;28;20102;-64
2022/03/09 08:20:44;;;;;;;12.60;6.75;;;9.50;94.80;;;;;;4953122;28;20579;-64
2022/03/09 08:23:10;;;;;;;10.65;7.40;;;10.20;94.30;;;;;;4952292;29;20051;-64
2022/03/09 08:25:36;;;;;;;10.95;6.70;;;10.70;93.40;;;;;;4961196;28;20091;-64
2022/03/09 08:28:01;;;;;;;9.65;6.57;;;11.20;92.40;;;;;;4961052;28;20117;-56
2022/03/09 08:30:28;;;;;;;11.02;6.45;;;11.50;90.40;;;;;;4960021;28;20049;-63
2022/03/09 08:32:53;;;;;;;9.65;6.57;;;11.70;90.80;;;;;;4968279;28;20144;-62
2022/03/09 08:35:19;;;;;;;10.65;6.10;;;;;;;;;;4968789;28;20031;-63
2022/03/09 08:37:45;;;;;;;9.00;6.35;;;;;;;;;;4975249;28;20417;-61
2022/03/09 08:40:12;;;;;;;8.23;6.13;;;13.30;89.40;;;;;;4963663;28;20100;-63
2022/03/09 08:42:38;;;;;;;9.40;6.85;;;13.70;87.50;;;;;;4967077;28;20050;-65
2022/03/09 08:45:04;;;;;;;14.18;7.22;;;14.50;86.50;;;;;;4971955;28;20035;-63
2022/03/09 08:47:30;;;;;;;8.55;6.78;;;14.60;84.80;;;;;;4968164;28;20045;-65
2022/03/09 08:49:57;;;;;;;9.52;6.68;;;15.30;82.40;;;;;;4970529;28;20051;-63
2022/03/09 08:52:23;;;;;;;8.50;6.78;;;15.60;80.30;;;;;;4967741;28;20086;-63
2022/03/09 08:54:48;;;;;;;9.45;6.63;;;16.00;79.80;;;;;;4967272;28;20460;-65
2022/03/09 08:57:14;;;;;;;8.43;6.03;;;16.10;78.60;;;;;;4967157;28;20118;-64
2022/03/09 08:59:40;;;;;;;9.45;6.55;;;15.70;77.00;;;;;;4974502;28;20484;-64
2022/03/09 09:02:06;;;;;;;9.48;5.80;;;15.90;75.80;;;;;;4967693;28;20122;-62
2022/03/09 09:04:32;;;;;;;9.43;6.90;;;15.90;76.10;;;;;;4964451;28;20047;-65
2022/03/09 09:06:57;;;;;;;9.68;6.75;;;15.70;77.90;;;;;;4935852;28;20409;-63
2022/03/09 09:09:23;;;;;;;8.52;6.47;;;15.40;75.80;;;;;;4972305;28;20074;-64
2022/03/09 09:11:48;;;;;;;11.02;6.85;;;15.50;76.10;;;;;;4945296;28;20653;-62
2022/03/09 09:14:14;;;;;;;9.60;6.40;;;15.20;75.60;;;;;;4958607;28;20404;-61
2022/03/09 09:16:43;;;;;;;9.07;5.72;;;15.80;76.50;;;;;;4983477;28;20089;-62
2022/03/09 09:19:09;;;;;;;9.82;6.57;;;16.00;74.20;;;;;;4953345;28;20035;-62
2022/03/09 09:21:34;;;;;;;11.07;6.55;;;17.10;74.10;;;;;;4959589;28;20449;-63
2022/03/09 09:24:00;;;;;;;10.63;6.45;;;17.30;72.90;;;;;;4952607;28;20409;-63
2022/03/09 09:26:26;;;;;;;11.23;6.90;;;17.90;72.10;;;;;;4954642;28;20410;-64
2022/03/09 09:28:52;;;;;;;7.72;5.97;;;18.00;71.10;;;;;;4962114;28;20043;-63
2022/03/09 09:31:17;;;;;;;11.02;6.55;;;18.50;71.40;;;;;;4979629;28;20049;-65
2022/03/09 09:33:43;;;;;;;9.82;7.35;;;18.50;70.10;;;;;;4949598;28;20051;-65
2022/03/09 09:36:08;;;;;;;7.65;6.07;;;18.40;70.60;;;;;;4968617;28;20077;-65
2022/03/09 09:38:34;;;;;;;11.02;5.70;;;18.90;70.90;;;;;;4947902;28;20126;-63
2022/03/09 09:41:00;;;;;;;10.18;6.55;;;18.70;69.60;;;;;;4974287;28;20126;-61
2022/03/09 09:43:26;;;;;;;10.52;6.28;;;19.00;69.20;;;;;;4951734;28;20042;-63
2022/03/09 09:45:53;;;;;;;8.77;6.35;;;18.80;69.80;;;;;;4970372;28;20050;-64
2022/03/09 09:48:19;;;;;;;10.85;6.40;;;19.00;69.60;;;;;;4968759;28;20035;-64
2022/03/09 09:50:45;;;;;;;8.45;6.38;;;19.40;69.30;;;;;;4968878;28;20132;-65
2022/03/09 09:53:14;;;;;;;10.35;6.40;;;19.90;68.40;;;;;;4963465;28;20456;-60
2022/03/09 09:55:41;;;;;;;10.38;7.82;;;20.20;69.70;;;;;;4965782;28;20484;-61
2022/03/09 09:58:08;;;;;;;9.90;5.90;;;20.70;68.20;;;;;;4970392;28;20058;-61
2022/03/09 10:00:34;;;;;;;9.57;6.75;;;21.00;66.40;;;;;;4950738;28;20573;-61
2022/03/09 10:03:00;;;;;;;9.32;6.88;;;21.00;65.70;;;;;;4967260;28;20126;-62
2022/03/09 10:05:26;;;;;;;9.38;6.55;;;21.30;66.10;;;;;;4951139;28;21162;-61
2022/03/09 10:08:04;;;;;;;10.52;6.90;;;21.50;66.00;;;;;;4962727;28;20034;-61
2022/03/09 10:10:41;;;;;;;12.02;6.28;;;22.00;66.30;;;;;;4958142;28;20031;-60
2022/03/09 10:13:15;;;;;;;11.27;6.15;;;22.00;63.50;;;;;;4967918;28;20232;-62
2022/03/09 10:15:43;;;;;;;11.90;6.97;;;22.60;64.90;;;;;;4969128;28;20034;-62
2022/03/09 10:18:21;;;;;;;7.50;6.18;;;22.90;63.30;;;;;;4966566;28;20046;-62
2022/03/09 10:20:49;;;;;;;9.27;6.97;;;22.80;63.40;;;;;;4964603;28;20085;-64
2022/03/09 10:23:20;;;;;;;10.15;6.72;;;22.60;63.50;;;;;;4955787;28;20050;-63
2022/03/09 10:25:47;;;;;;;8.02;5.93;;;22.90;63.20;;;;;;4982798;28;20047;-64
2022/03/09 10:28:13;;;;;;;9.18;6.03;;;23.10;62.70;;;;;;4966554;28;20058;-64
2022/03/09 10:30:41;;;;;;;8.35;6.13;;;23.30;62.30;;;;;;4963931;28;20039;-65
2022/03/09 10:33:09;;;;;;;7.65;6.03;;;23.30;61.80;;;;;;4964040;28;20447;-61
2022/03/09 10:35:34;;;;;;;7.78;6.75;;;23.00;61.50;;;;;;4964874;28;20054;-62
2022/03/09 10:38:04;;;;;;;10.23;6.18;;;23.10;61.00;;;;;;4950439;28;20038;-63
2022/03/09 10:40:32;;;;;;;10.93;6.40;;;22.70;62.10;;;;;;4965165;28;20396;-65
2022/03/09 10:43:16;;;;;;;7.65;6.25;;;22.10;60.80;;;;;;4990741;28;20034;-63
2022/03/09 10:45:59;;;;;;;10.55;6.07;;;21.90;60.30;;;;;;4964075;28;20049;-61
2022/03/09 10:48:26;;;;;;;11.10;6.85;;;20.80;61.20;;;;;;4967407;28;20045;-64
2022/03/09 10:50:53;;;;;;;9.85;6.38;;;19.80;63.30;;;;;;4964665;28;20083;-61
2022/03/09 10:53:19;;;;;;;10.40;6.90;;;19.00;64.60;;;;;;4954590;28;20070;-62
2022/03/09 10:55:44;;;;;;;10.77;7.80;;;18.20;65.50;;;;;;4943928;28;20105;-61
2022/03/09 10:58:15;;;;;;;10.43;7.10;;;17.40;66.60;;;;;;4966271;28;20155;-61
2022/03/09 11:00:51;;;;;;;13.63;7.18;;;16.80;68.40;;;;;;4962129;28;20062;-60
2022/03/09 11:03:32;;;;;;;10.20;6.43;;;16.10;67.20;;;;;;4966656;28;20066;-62
2022/03/09 11:06:01;;;;;;;13.02;6.95;;;15.20;69.90;;;;;;4950961;28;20047;-61
2022/03/09 11:08:32;;;;;;;10.35;6.53;;;15.40;73.00;;;;;;4962673;28;20023;-61
2022/03/09 11:10:58;;;;;;;11.45;7.22;;;15.00;73.10;;;;;;4945603;28;20460;-61
2022/03/09 11:13:25;;;;;;;10.77;6.68;;;14.70;74.20;;;;;;4963542;28;20130;-63
2022/03/09 11:15:53;;;;;;;10.43;7.82;;;13.90;74.60;;;;;;4967787;28;20512;-63
2022/03/09 11:18:24;;;;;;;11.70;7.28;;;13.90;76.00;;;;;;4955623;28;20120;-64
2022/03/09 11:20:56;;;;;;;9.32;6.57;;;13.80;73.10;;;;;;4939486;28;20047;-63
2022/03/09 11:23:22;;;;;;;9.75;6.82;;;13.50;75.40;;;;;;4956484;28;20034;-62
2022/03/09 11:25:53;;;;;;;10.95;7.05;;;13.30;76.70;;;;;;4967959;28;20035;-62
2022/03/09 11:28:28;;;;;;;10.77;7.63;;;12.80;77.30;;;;;;4954975;28;20039;-60
2022/03/09 11:30:55;;;;;;;;;;;13.10;76.20;;;;;;4970513;28;20105;-60
2022/03/09 11:33:44;;;;;;;12.85;7.53;;;12.70;79.00;;;;;;4944570;28;19934;-59
2022/03/09 11:36:22;;;;;;;12.23;7.55;;;12.70;79.00;;;;;;4975101;28;20041;-60
2022/03/09 11:38:55;;;;;;;10.77;8.07;;;12.60;79.00;;;;;;4933279;29;20055;-59
2022/03/09 11:41:28;;;;;;;11.52;7.95;;;12.70;77.30;;;;;;4994549;28;20442;-60
2022/03/09 11:44:14;;;;;;;11.93;8.13;;;12.70;77.50;;;;;;4949494;28;20047;-59
2022/03/09 11:47:01;;;;;;;10.48;7.75;;;12.60;78.20;;;;;;4959356;28;20041;-60
2022/03/09 11:49:32;;;;;;;11.13;7.20;;;12.60;77.70;;;;;;4954170;28;20047;-61
2022/03/09 11:52:06;;;;;;;9.02;7.10;;;12.60;77.60;;;;;;4962769;28;20048;-61
2022/03/09 11:54:55;;;;;;;10.95;7.43;;;12.60;78.10;;;;;;4949771;28;20519;-61
2022/03/09 11:57:44;;;;;;;10.80;8.07;;;12.50;77.90;;;;;;4960852;28;20452;-60
2022/03/09 12:00:15;;;;;;;12.90;8.05;;;12.60;76.60;;;;;;4974717;28;20406;-60
2022/03/09 12:02:47;;;;;;;13.23;8.40;;;12.70;78.00;;;;;;4975611;28;20041;-57
2022/03/09 12:05:25;;;;;;;10.13;6.72;;;12.50;77.60;;;;;;5003782;28;20047;-61
2022/03/09 12:08:01;;;;;;;10.45;7.60;;;12.60;77.70;;;;;;4979042;28;20520;-58
2022/03/09 12:10:42;;;;;;;9.90;7.30;;;12.40;75.50;;;;;;4962925;28;20078;-60
2022/03/09 12:13:18;;;;;;;12.52;7.72;;;12.60;78.80;;;;;;4951345;28;20050;-60
2022/03/09 12:16:12;;;;;;;11.52;7.38;;;12.60;78.40;;;;;;4954128;28;20059;-57
2022/03/09 12:18:47;;;;;;;12.48;7.35;;;12.60;78.30;;;;;;4938526;28;20047;-60
2022/03/09 12:21:15;;;;;;;11.43;7.13;;;12.80;78.30;;;;;;4963908;28;20046;-57
2022/03/09 12:24:00;;;;;;;10.15;7.88;;;12.70;78.00;;;;;;4951123;29;20052;-59
2022/03/09 12:26:54;;;;;;;11.48;7.93;;;12.60;73.60;;;;;;4974240;28;20097;-60
2022/03/09 12:29:28;;;;;;;13.40;8.32;;;12.60;77.90;;;;;;4973280;28;20047;-58
2022/03/09 12:32:13;;;;;;;11.98;8.38;;;12.50;78.30;;;;;;4958512;28;20051;-59
2022/03/09 12:34:41;;;;;;;11.90;9.32;;;12.80;79.00;;;;;;4955722;28;20233;-59
2022/03/09 12:37:10;;;;;;;11.50;8.23;;;12.80;79.10;;;;;;5003083;28;20070;-57
2022/03/09 12:39:36;;;;;;;12.65;8.15;;;12.70;78.60;;;;;;4953394;28;20044;-59
2022/03/09 12:42:04;;;;;;;13.63;8.55;;;12.70;78.60;;;;;;4964602;28;20039;-56
2022/03/09 12:44:34;;;;;;;11.63;7.88;;;12.90;78.20;;;;;;4957211;28;20070;-58
2022/03/09 12:47:03;;;;;;;13.90;8.68;;;12.90;79.60;;;;;;4989270;28;20051;-56
2022/03/09 12:49:34;;;;;;;14.65;7.93;;;12.90;79.00;;;;;;4977656;28;20162;-58
2022/03/09 12:52:10;;;;;;;14.73;7.15;;;13.10;77.90;;;;;;4962585;28;20051;-56
2022/03/09 12:54:36;;;;;;;13.10;8.65;;;13.00;78.40;;;;;;4953050;28;20086;-58
2022/03/09 12:57:08;;;;;;;11.27;8.38;;;13.00;78.50;;;;;;4942323;28;20083;-56
2022/03/09 12:59:34;;;;;;;9.55;8.00;;;13.00;79.10;;;;;;4950281;28;20393;-58
2022/03/09 13:02:00;;;;;;;11.30;7.28;;;13.00;78.30;;;;;;4953400;28;20035;-56
2022/03/09 13:04:26;;;;;;;11.20;7.53;;;;;;;;;;4953207;28;20039;-57
2022/03/09 13:06:51;;;;;;;12.65;7.97;;;13.00;78.90;;;;;;4935468;28;20061;-57
2022/03/09 13:09:22;;;;;;;11.65;8.02;;;13.20;77.40;;;;;;4966173;28;20039;-56
2022/03/09 13:11:48;;;;;;;11.38;7.50;;;13.20;77.50;;;;;;4959001;28;20047;-60